createdAt,value
2023-02-11T00:00:37.921Z,48.90
2023-02-11T00:01:38.049Z,52.60
2023-02-11T00:02:38.437Z,50.50
2023-02-11T00:03:38.893Z,54.70
2023-02-11T00:04:39.019Z,53.00
2023-02-11T00:05:39.503Z,51.30
2023-02-11T00:06:39.703Z,53.00
2023-02-11T00:07:39.976Z,52.70
2023-02-11T00:08:40.194Z,51.90
2023-02-11T00:09:40.398Z,50.80
2023-02-11T00:10:40.773Z,50.90
2023-02-11T00:11:41.015Z,50.40
2023-02-11T00:12:41.306Z,50.80
2023-02-11T00:13:41.506Z,49.50
2023-02-11T00:14:41.907Z,50.60
2023-02-11T00:15:42.128Z,54.20
2023-02-11T00:16:42.452Z,48.50
2023-02-11T00:17:42.695Z,50.50
2023-02-11T00:18:42.971Z,51.30
2023-02-11T00:19:43.094Z,51.40
2023-02-11T00:20:43.455Z,52.20
2023-02-11T00:21:43.818Z,52.80
2023-02-11T00:22:44.058Z,49.20
2023-02-11T00:23:44.438Z,49.30
2023-02-11T00:24:44.638Z,54.70
2023-02-11T00:25:44.964Z,52.40
2023-02-11T00:26:45.290Z,49.10
2023-02-11T00:27:45.592Z,50.00
2023-02-11T00:28:45.848Z,52.00
2023-02-11T00:29:46.279Z,51.70
2023-02-11T00:30:46.595Z,51.20
2023-02-11T00:31:46.850Z,49.80
2023-02-11T00:32:47.002Z,53.60
2023-02-11T00:33:47.224Z,53.10
2023-02-11T00:34:47.551Z,52.20
2023-02-11T00:35:48.080Z,50.30
2023-02-11T00:36:48.254Z,55.00
2023-02-11T00:37:48.470Z,57.10
2023-02-11T00:38:48.734Z,52.50
2023-02-11T00:39:49.078Z,54.70
2023-02-11T00:40:49.493Z,53.90
2023-02-11T00:41:49.651Z,52.90
2023-02-11T00:42:49.976Z,50.10
2023-02-11T00:43:50.282Z,51.50
2023-02-11T00:44:50.592Z,52.00
2023-02-11T00:45:51.225Z,50.10
2023-02-11T00:46:51.259Z,51.10
2023-02-11T00:47:51.441Z,52.00
2023-02-11T00:48:51.877Z,50.30
2023-02-11T00:49:52.064Z,52.10
2023-02-11T00:50:52.417Z,49.90
2023-02-11T00:51:52.755Z,50.60
2023-02-11T00:52:53.017Z,50.20
2023-02-11T00:53:53.333Z,49.00
2023-02-11T00:54:53.712Z,50.70
2023-02-11T00:55:53.927Z,48.70
2023-02-11T00:56:54.252Z,50.00
2023-02-11T00:57:54.555Z,48.80
2023-02-11T00:58:54.901Z,50.90
2023-02-11T00:59:55.217Z,51.40
2023-02-11T01:00:55.539Z,47.00
2023-02-11T01:01:55.828Z,50.00
2023-02-11T01:02:56.191Z,47.30
2023-02-11T01:03:56.522Z,50.00
2023-02-11T01:04:56.827Z,48.60
2023-02-11T01:05:57.002Z,50.60
2023-02-11T01:06:57.358Z,48.80
2023-02-11T01:07:58.047Z,49.40
2023-02-11T01:08:57.935Z,50.20
2023-02-11T01:09:58.259Z,48.70
2023-02-11T01:10:58.601Z,51.20
2023-02-11T01:11:58.804Z,49.50
2023-02-11T01:12:59.169Z,49.50
2023-02-11T01:13:59.414Z,49.40
2023-02-11T01:14:59.806Z,47.90
2023-02-11T01:16:00.053Z,49.00
2023-02-11T01:17:00.345Z,49.90
2023-02-11T01:18:00.601Z,51.20
2023-02-11T01:19:00.923Z,52.60
2023-02-11T01:20:01.218Z,54.00
2023-02-11T01:21:01.608Z,90.80
2023-02-11T01:22:01.821Z,57.40
2023-02-11T01:23:02.197Z,54.70
2023-02-11T01:24:02.574Z,51.10
2023-02-11T01:25:02.788Z,49.00
2023-02-11T01:26:03.203Z,48.20
2023-02-11T01:27:03.474Z,51.40
2023-02-11T01:28:03.771Z,47.00
2023-02-11T01:29:03.980Z,47.10
2023-02-11T01:30:04.282Z,50.10
2023-02-11T01:31:04.701Z,49.90
2023-02-11T01:32:04.894Z,51.20
2023-02-11T01:33:05.181Z,62.50
2023-02-11T01:34:05.373Z,52.90
2023-02-11T01:35:05.685Z,49.50
2023-02-11T01:36:06.000Z,46.50
2023-02-11T01:37:06.365Z,48.80
2023-02-11T01:38:06.590Z,49.20
2023-02-11T01:39:06.814Z,47.10
2023-02-11T01:40:07.037Z,49.20
2023-02-11T01:41:07.396Z,47.00
2023-02-11T01:42:07.750Z,49.30
2023-02-11T01:43:08.060Z,47.00
2023-02-11T01:44:08.334Z,46.20
2023-02-11T01:45:08.586Z,48.60
2023-02-11T01:46:08.789Z,48.20
2023-02-11T01:47:09.098Z,48.50
2023-02-11T01:48:09.405Z,46.50
2023-02-11T01:49:09.759Z,46.60
2023-02-11T01:50:09.966Z,44.70
2023-02-11T01:51:10.288Z,48.60
2023-02-11T01:52:10.596Z,43.70
2023-02-11T01:53:10.946Z,48.40
2023-02-11T01:54:11.358Z,46.90
2023-02-11T01:55:11.579Z,47.10
2023-02-11T01:56:11.766Z,46.80
2023-02-11T01:57:12.049Z,46.20
2023-02-11T01:58:12.341Z,48.90
2023-02-11T01:59:12.719Z,49.00
2023-02-11T02:00:13.096Z,46.90
2023-02-11T02:01:13.830Z,45.10
2023-02-11T02:02:13.824Z,46.10
2023-02-11T02:03:13.918Z,48.00
2023-02-11T02:04:14.097Z,45.40
2023-02-11T02:05:14.469Z,46.90
2023-02-11T02:06:14.776Z,43.40
2023-02-11T02:07:15.143Z,44.40
2023-02-11T02:08:15.313Z,44.70
2023-02-11T02:09:15.695Z,45.60
2023-02-11T02:10:16.015Z,45.80
2023-02-11T02:11:16.406Z,45.20
2023-02-11T02:12:16.599Z,45.90
2023-02-11T02:13:16.924Z,45.20
2023-02-11T02:14:17.254Z,42.20
2023-02-11T02:15:17.500Z,43.40
2023-02-11T02:16:17.817Z,45.10
2023-02-11T02:17:18.072Z,45.00
2023-02-11T02:18:18.402Z,45.30
2023-02-11T02:19:18.626Z,45.20
2023-02-11T02:20:18.799Z,45.40
2023-02-11T02:21:19.157Z,47.80
2023-02-11T02:22:19.512Z,48.50
2023-02-11T02:23:19.726Z,44.40
2023-02-11T02:24:20.035Z,49.80
2023-02-11T02:25:20.444Z,44.40
2023-02-11T02:26:20.691Z,46.70
2023-02-11T02:27:21.058Z,47.60
2023-02-11T02:28:21.447Z,45.50
2023-02-11T02:29:21.654Z,42.70
2023-02-11T02:30:21.985Z,44.20
2023-02-11T02:31:22.359Z,44.40
2023-02-11T02:32:22.593Z,43.80
2023-02-11T02:33:23.295Z,42.30
2023-02-11T02:34:23.212Z,44.50
2023-02-11T02:35:23.544Z,44.40
2023-02-11T02:36:23.721Z,41.50
2023-02-11T02:37:24.081Z,43.10
2023-02-11T02:38:24.290Z,43.70
2023-02-11T02:39:24.588Z,45.50
2023-02-11T02:40:24.842Z,41.00
2023-02-11T02:41:25.064Z,43.80
2023-02-11T02:42:25.363Z,41.10
2023-02-11T02:43:25.755Z,41.80
2023-02-11T02:44:26.002Z,44.00
2023-02-11T02:45:26.387Z,44.40
2023-02-11T02:46:26.702Z,43.10
2023-02-11T02:47:26.893Z,42.60
2023-02-11T02:48:27.243Z,43.60
2023-02-11T02:49:27.525Z,41.80
2023-02-11T02:50:27.798Z,38.90
2023-02-11T02:51:28.094Z,41.70
2023-02-11T02:52:28.475Z,42.80
2023-02-11T02:53:28.660Z,39.50
2023-02-11T02:54:28.939Z,40.40
2023-02-11T02:55:29.275Z,42.10
2023-02-11T02:56:29.483Z,40.60
2023-02-11T02:57:29.839Z,43.10
2023-02-11T02:58:30.198Z,43.70
2023-02-11T02:59:30.398Z,42.90
2023-02-11T03:00:30.739Z,41.10
2023-02-11T03:01:31.463Z,40.50
2023-02-11T03:02:31.382Z,44.60
2023-02-11T03:03:31.760Z,42.70
2023-02-11T03:04:31.986Z,42.60
2023-02-11T03:05:32.296Z,45.00
2023-02-11T03:06:32.633Z,45.10
2023-02-11T03:07:32.941Z,42.50
2023-02-11T03:08:33.255Z,42.20
2023-02-11T03:09:33.617Z,43.80
2023-02-11T03:10:33.956Z,45.40
2023-02-11T03:11:34.149Z,42.50
2023-02-11T03:12:34.359Z,46.10
2023-02-11T03:13:34.721Z,45.30
2023-02-11T03:14:35.031Z,45.50
2023-02-11T03:15:35.748Z,47.30
2023-02-11T03:16:35.683Z,44.40
2023-02-11T03:17:36.011Z,46.90
2023-02-11T03:18:36.337Z,46.00
2023-02-11T03:19:36.664Z,49.20
2023-02-11T03:20:37.052Z,50.60
2023-02-11T03:21:37.238Z,50.80
2023-02-11T03:22:37.594Z,50.50
2023-02-11T03:23:37.917Z,51.20
2023-02-11T03:24:38.129Z,49.70
2023-02-11T03:25:38.513Z,51.00
2023-02-11T03:26:38.718Z,50.90
2023-02-11T03:27:39.115Z,52.20
2023-02-11T03:28:39.323Z,48.90
2023-02-11T03:29:39.538Z,51.50
2023-02-11T03:30:39.868Z,52.00
2023-02-11T03:31:40.344Z,51.60
2023-02-11T03:32:40.393Z,53.60
2023-02-11T03:33:40.765Z,54.70
2023-02-11T03:34:41.073Z,48.30
2023-02-11T03:35:41.442Z,48.50
2023-02-11T03:36:41.791Z,49.00
2023-02-11T03:37:42.000Z,52.40
2023-02-11T03:38:42.329Z,50.70
2023-02-11T03:39:42.647Z,53.90
2023-02-11T03:40:42.972Z,47.60
2023-02-11T03:41:43.318Z,51.00
2023-02-11T03:42:43.533Z,48.10
2023-02-11T03:43:43.916Z,52.70
2023-02-11T03:44:44.114Z,50.20
2023-02-11T03:45:44.523Z,47.20
2023-02-11T03:46:44.687Z,50.10
2023-02-11T03:47:45.042Z,53.10
2023-02-11T03:48:45.405Z,49.40
2023-02-11T03:49:45.702Z,48.50
2023-02-11T03:50:46.035Z,49.90
2023-02-11T03:51:46.461Z,49.00
2023-02-11T03:52:46.689Z,50.00
2023-02-11T03:53:47.027Z,48.80
2023-02-11T03:54:47.254Z,50.80
2023-02-11T03:55:47.967Z,49.30
2023-02-11T03:56:47.886Z,51.30
2023-02-11T03:57:48.196Z,52.00
2023-02-11T03:58:48.485Z,50.20
2023-02-11T03:59:48.850Z,48.00
2023-02-11T04:00:49.061Z,48.50
2023-02-11T04:01:49.456Z,50.10
2023-02-11T04:02:49.680Z,48.10
2023-02-11T04:03:49.874Z,54.70
2023-02-11T04:04:50.228Z,49.50
2023-02-11T04:05:50.881Z,52.30
2023-02-11T04:06:50.856Z,51.50
2023-02-11T04:07:51.236Z,49.70
2023-02-11T04:08:51.453Z,50.70
2023-02-11T04:09:51.698Z,47.60
2023-02-11T04:10:52.002Z,50.10
2023-02-11T04:11:52.332Z,50.40
2023-02-11T04:12:52.545Z,49.50
2023-02-11T04:13:52.833Z,49.80
2023-02-11T04:14:53.115Z,50.10
2023-02-11T04:15:53.915Z,48.00
2023-02-11T04:16:54.202Z,51.50
2023-02-11T04:17:54.050Z,48.70
2023-02-11T04:18:54.276Z,45.40
2023-02-11T04:19:54.592Z,50.10
2023-02-11T04:20:54.934Z,46.10
2023-02-11T04:21:55.222Z,47.20
2023-02-11T04:22:55.414Z,46.70
2023-02-11T04:23:55.769Z,44.30
2023-02-11T04:24:55.964Z,46.60
2023-02-11T04:25:56.332Z,46.20
2023-02-11T04:26:56.637Z,46.50
2023-02-11T04:27:57.119Z,47.30
2023-02-11T04:28:57.236Z,45.80
2023-02-11T04:29:57.566Z,47.10
2023-02-11T04:30:58.915Z,48.50
2023-02-11T04:31:58.179Z,47.60
2023-02-11T04:32:58.368Z,47.30
2023-02-11T04:33:58.718Z,46.80
2023-02-11T04:34:58.927Z,48.00
2023-02-11T04:35:59.244Z,46.30
2023-02-11T04:36:59.556Z,46.30
2023-02-11T04:37:59.944Z,44.40
2023-02-11T04:39:00.138Z,47.70
2023-02-11T04:40:00.463Z,45.00
2023-02-11T04:41:00.697Z,46.00
2023-02-11T04:42:01.003Z,46.00
2023-02-11T04:43:01.713Z,49.40
2023-02-11T04:44:01.622Z,47.80
2023-02-11T04:45:01.933Z,46.40
2023-02-11T04:46:02.162Z,44.90
2023-02-11T04:47:02.436Z,47.10
2023-02-11T04:48:02.838Z,49.40
2023-02-11T04:49:03.005Z,45.20
2023-02-11T04:50:03.352Z,45.10
2023-02-11T04:51:03.564Z,48.40
2023-02-11T04:52:03.878Z,46.00
2023-02-11T04:53:04.175Z,46.70
2023-02-11T04:54:04.544Z,42.70
2023-02-11T04:55:04.850Z,45.90
2023-02-11T04:56:05.258Z,44.00
2023-02-11T04:57:05.459Z,47.60
2023-02-11T04:58:05.742Z,48.20
2023-02-11T04:59:06.063Z,47.70
2023-02-11T05:00:06.348Z,48.40
2023-02-11T05:01:06.566Z,44.50
2023-02-11T05:02:06.861Z,45.80
2023-02-11T05:03:07.174Z,45.00
2023-02-11T05:04:07.528Z,44.60
2023-02-11T05:05:07.718Z,47.50
2023-02-11T05:06:08.075Z,46.60
2023-02-11T05:07:08.360Z,47.70
2023-02-11T05:08:08.653Z,46.10
2023-02-11T05:09:09.016Z,44.20
2023-02-11T05:10:09.294Z,46.30
2023-02-11T05:11:09.625Z,49.50
2023-02-11T05:12:09.850Z,50.10
2023-02-11T05:13:10.030Z,47.60
2023-02-11T05:14:10.405Z,50.00
2023-02-11T05:15:10.570Z,51.00
2023-02-11T05:16:10.976Z,50.60
2023-02-11T05:17:11.178Z,49.70
2023-02-11T05:18:11.538Z,51.60
2023-02-11T05:19:11.753Z,55.80
2023-02-11T05:20:12.083Z,52.50
2023-02-11T05:21:12.385Z,54.10
2023-02-11T05:22:12.713Z,55.20
2023-02-11T05:23:13.018Z,55.60
2023-02-11T05:24:13.339Z,53.70
2023-02-11T05:25:13.698Z,53.10
2023-02-11T05:26:13.891Z,54.30
2023-02-11T05:27:14.252Z,55.60
2023-02-11T05:28:14.612Z,54.70
2023-02-11T05:29:14.679Z,52.40
2023-02-11T05:30:15.116Z,54.20
2023-02-11T05:31:15.368Z,54.30
2023-02-11T05:32:15.623Z,53.90
2023-02-11T05:33:15.798Z,51.60
2023-02-11T05:34:16.220Z,50.60
2023-02-11T05:35:16.413Z,52.30
2023-02-11T05:36:16.733Z,52.00
2023-02-11T05:37:17.107Z,52.70
2023-02-11T05:38:17.356Z,53.10
2023-02-11T05:39:17.544Z,53.60
2023-02-11T05:40:17.896Z,52.10
2023-02-11T05:41:18.159Z,50.90
2023-02-11T05:42:18.365Z,53.80
2023-02-11T05:43:18.677Z,53.80
2023-02-11T05:44:19.044Z,52.70
2023-02-11T05:45:19.788Z,49.30
2023-02-11T05:46:19.691Z,54.80
2023-02-11T05:47:19.876Z,52.90
2023-02-11T05:48:20.226Z,50.80
2023-02-11T05:49:20.396Z,53.00
2023-02-11T05:50:20.780Z,52.20
2023-02-11T05:51:21.120Z,51.10
2023-02-11T05:52:21.426Z,53.40
2023-02-11T05:53:21.710Z,52.70
2023-02-11T05:54:22.082Z,56.80
2023-02-11T05:55:22.393Z,53.40
2023-02-11T05:56:22.713Z,53.40
2023-02-11T05:57:23.030Z,51.40
2023-02-11T05:58:23.356Z,55.00
2023-02-11T05:59:23.674Z,52.40
2023-02-11T06:00:24.014Z,51.10
2023-02-11T06:01:24.564Z,53.00
2023-02-11T06:02:24.706Z,57.20
2023-02-11T06:03:24.906Z,53.00
2023-02-11T06:04:25.149Z,55.10
2023-02-11T06:05:25.480Z,52.10
2023-02-11T06:06:25.839Z,57.10
2023-02-11T06:07:26.108Z,50.80
2023-02-11T06:08:26.427Z,54.10
2023-02-11T06:09:26.599Z,52.40
2023-02-11T06:10:26.934Z,54.30
2023-02-11T06:11:27.184Z,53.10
2023-02-11T06:12:27.496Z,53.70
2023-02-11T06:13:27.697Z,53.40
2023-02-11T06:14:28.000Z,55.50
2023-02-11T06:15:28.237Z,54.10
2023-02-11T06:16:28.746Z,54.00
2023-02-11T06:17:28.810Z,54.20
2023-02-11T06:18:29.039Z,54.30
2023-02-11T06:19:29.383Z,54.70
2023-02-11T06:20:29.552Z,51.20
2023-02-11T06:21:42.832Z,52.30
2023-02-11T06:22:31.097Z,51.60
2023-02-11T06:23:30.666Z,51.20
2023-02-11T06:24:54.690Z,52.70
2023-02-11T06:25:31.846Z,53.00
2023-02-11T06:26:31.153Z,52.20
2023-02-11T06:27:31.398Z,51.80
2023-02-11T06:28:31.726Z,51.10
2023-02-11T06:29:31.918Z,50.70
2023-02-11T06:30:32.174Z,51.70
2023-02-11T06:31:32.519Z,53.50
2023-02-11T06:32:43.899Z,53.40
2023-02-11T06:33:34.031Z,50.50
2023-02-11T06:34:33.309Z,51.50
2023-02-11T06:35:33.539Z,49.90
2023-02-11T06:36:33.817Z,50.50
2023-02-11T06:37:34.120Z,48.90
2023-02-11T06:38:34.386Z,54.50
2023-02-11T06:39:35.548Z,48.20
2023-02-11T06:40:35.007Z,48.00
2023-02-11T06:41:35.221Z,50.10
2023-02-11T06:42:35.556Z,51.10
2023-02-11T06:43:35.787Z,51.80
2023-02-11T06:44:36.095Z,48.50
2023-02-11T06:45:36.350Z,65.20
2023-02-11T06:46:36.754Z,60.60
2023-02-11T06:47:36.974Z,50.20
2023-02-11T06:48:37.248Z,51.10
2023-02-11T06:49:37.447Z,48.90
2023-02-11T06:50:37.773Z,47.40
2023-02-11T06:51:38.040Z,48.50
2023-02-11T06:52:38.281Z,50.90
2023-02-11T06:53:38.594Z,48.30
2023-02-11T06:54:38.832Z,49.40
2023-02-11T06:55:39.088Z,46.60
2023-02-11T06:56:39.424Z,46.20
2023-02-11T06:57:39.635Z,48.00
2023-02-11T06:58:39.920Z,45.50
2023-02-11T06:59:40.164Z,47.00
2023-02-11T07:00:40.522Z,47.30
2023-02-11T07:01:40.803Z,44.60
2023-02-11T07:02:41.267Z,45.30
2023-02-11T07:03:41.338Z,44.80
2023-02-11T07:04:41.648Z,44.80
2023-02-11T07:05:41.911Z,47.20
2023-02-11T07:06:42.229Z,45.20
2023-02-11T07:07:42.499Z,45.80
2023-02-11T07:08:42.781Z,45.10
2023-02-11T07:09:43.063Z,43.90
2023-02-11T07:10:43.344Z,50.30
2023-02-11T07:11:43.604Z,45.30
2023-02-11T07:12:43.919Z,46.20
2023-02-11T07:13:44.164Z,44.70
2023-02-11T07:14:44.445Z,44.30
2023-02-11T07:15:44.762Z,45.90
2023-02-11T07:16:45.052Z,43.80
2023-02-11T07:17:45.284Z,44.30
2023-02-11T07:18:45.574Z,44.00
2023-02-11T07:19:45.844Z,44.00
2023-02-11T07:20:46.127Z,43.80
2023-02-11T07:21:46.432Z,49.00
2023-02-11T07:22:46.743Z,43.10
2023-02-11T07:23:46.999Z,49.30
2023-02-11T07:24:47.318Z,44.00
2023-02-11T07:25:47.743Z,41.90
2023-02-11T07:26:47.957Z,46.20
2023-02-11T07:27:48.285Z,45.30
2023-02-11T07:28:48.528Z,42.00
2023-02-11T07:29:48.786Z,44.80
2023-02-11T07:30:49.120Z,43.00
2023-02-11T07:31:49.386Z,43.00
2023-02-11T07:32:49.744Z,45.60
2023-02-11T07:33:50.012Z,42.30
2023-02-11T07:34:50.309Z,43.70
2023-02-11T07:35:50.859Z,43.50
2023-02-11T07:36:50.975Z,42.20
2023-02-11T07:37:51.187Z,43.40
2023-02-11T07:38:51.459Z,44.80
2023-02-11T07:39:51.715Z,44.00
2023-02-11T07:40:52.042Z,42.10
2023-02-11T07:41:52.353Z,43.20
2023-02-11T07:42:52.638Z,40.70
2023-02-11T07:43:52.861Z,42.20
2023-02-11T07:44:53.190Z,42.80
2023-02-11T07:45:53.409Z,39.70
2023-02-11T07:46:53.796Z,42.30
2023-02-11T07:47:53.872Z,42.60
2023-02-11T07:48:54.146Z,42.20
2023-02-11T07:49:56.564Z,41.60
2023-02-11T07:50:54.725Z,42.50
2023-02-11T07:51:55.063Z,41.40
2023-02-11T07:52:55.363Z,41.00
2023-02-11T07:53:55.600Z,39.00
2023-02-11T07:54:55.907Z,40.20
2023-02-11T07:55:56.174Z,41.50
2023-02-11T07:56:56.447Z,40.70
2023-02-11T07:57:56.731Z,40.30
2023-02-11T07:58:57.078Z,39.80
2023-02-11T07:59:57.364Z,40.10
2023-02-11T08:00:57.689Z,38.10
2023-02-11T08:01:58.008Z,39.60
2023-02-11T08:02:58.271Z,39.40
2023-02-11T08:03:58.548Z,40.20
2023-02-11T08:04:58.826Z,41.10
2023-02-11T08:05:59.184Z,38.80
2023-02-11T08:06:59.441Z,38.70
2023-02-11T08:07:59.660Z,37.00
2023-02-11T08:08:59.998Z,41.40
2023-02-11T08:10:00.291Z,38.80
2023-02-11T08:11:00.578Z,40.60
2023-02-11T08:12:00.909Z,37.70
2023-02-11T08:13:01.172Z,38.70
2023-02-11T08:14:01.450Z,36.40
2023-02-11T08:15:01.738Z,39.00
2023-02-11T08:16:01.994Z,36.60
2023-02-11T08:17:02.310Z,38.80
2023-02-11T08:18:02.560Z,38.70
2023-02-11T08:19:02.920Z,37.90
2023-02-11T08:20:03.124Z,36.00
2023-02-11T08:21:03.505Z,38.50
2023-02-11T08:22:03.773Z,38.40
2023-02-11T08:23:04.025Z,39.70
2023-02-11T08:24:04.812Z,34.10
2023-02-11T08:25:11.935Z,35.20
2023-02-11T08:26:04.844Z,35.50
2023-02-11T08:27:05.141Z,36.90
2023-02-11T08:28:05.406Z,39.00
2023-02-11T08:29:05.666Z,36.70
2023-02-11T08:30:05.979Z,37.80
2023-02-11T08:31:06.287Z,38.10
2023-02-11T08:32:06.579Z,37.40
2023-02-11T08:33:06.895Z,36.00
2023-02-11T08:34:07.110Z,36.40
2023-02-11T08:35:07.430Z,37.30
2023-02-11T08:36:07.688Z,37.10
2023-02-11T08:37:07.948Z,37.70
2023-02-11T08:38:08.226Z,36.70
2023-02-11T08:39:18.760Z,34.00
2023-02-11T08:40:09.781Z,36.80
2023-02-11T08:41:09.089Z,38.50
2023-02-11T08:42:09.359Z,36.60
2023-02-11T08:43:09.667Z,35.40
2023-02-11T08:44:09.962Z,36.90
2023-02-11T08:45:10.258Z,40.10
2023-02-11T08:46:10.596Z,36.00
2023-02-11T08:47:10.858Z,34.80
2023-02-11T08:48:11.128Z,34.70
2023-02-11T08:49:11.444Z,40.00
2023-02-11T08:50:11.736Z,33.90
2023-02-11T08:51:12.020Z,34.90
2023-02-11T08:52:12.301Z,35.40
2023-02-11T08:53:12.565Z,37.40
2023-02-11T08:54:12.890Z,37.90
2023-02-11T08:55:13.239Z,34.10
2023-02-11T08:56:13.705Z,34.20
2023-02-11T08:57:13.781Z,35.30
2023-02-11T08:58:14.067Z,33.60
2023-02-11T08:59:14.366Z,35.40
2023-02-11T09:00:14.708Z,34.60
2023-02-11T09:01:15.063Z,35.70
2023-02-11T09:02:15.272Z,33.10
2023-02-11T09:03:15.529Z,34.20
2023-02-11T09:04:15.793Z,34.20
2023-02-11T09:05:16.072Z,30.90
2023-02-11T09:06:16.439Z,31.20
2023-02-11T09:07:16.722Z,33.40
2023-02-11T09:08:17.025Z,34.00
2023-02-11T09:09:17.235Z,32.60
2023-02-11T09:10:17.545Z,31.60
2023-02-11T09:11:17.773Z,31.70
2023-02-11T09:12:18.069Z,33.70
2023-02-11T09:13:18.387Z,34.70
2023-02-11T09:14:18.651Z,31.30
2023-02-11T09:15:18.985Z,30.60
2023-02-11T09:16:19.300Z,31.60
2023-02-11T09:17:20.383Z,32.00
2023-02-11T09:18:19.805Z,32.50
2023-02-11T09:19:20.128Z,34.60
2023-02-11T09:20:20.390Z,32.40
2023-02-11T09:21:20.741Z,31.00
2023-02-11T09:22:21.004Z,30.80
2023-02-11T09:23:21.320Z,33.30
2023-02-11T09:24:21.602Z,30.50
2023-02-11T09:25:22.736Z,40.10
2023-02-11T09:26:22.172Z,34.60
2023-02-11T09:27:22.477Z,32.00
2023-02-11T09:28:22.773Z,33.00
2023-02-11T09:29:23.075Z,32.40
2023-02-11T09:30:23.524Z,32.20
2023-02-11T09:31:23.854Z,31.20
2023-02-11T09:32:23.964Z,30.60
2023-02-11T09:33:24.202Z,28.60
2023-02-11T09:34:24.492Z,31.80
2023-02-11T09:35:24.793Z,31.60
2023-02-11T09:36:25.120Z,30.50
2023-02-11T09:37:25.424Z,31.50
2023-02-11T09:38:25.691Z,33.40
2023-02-11T09:39:25.929Z,32.10
2023-02-11T09:40:26.231Z,29.40
2023-02-11T09:41:26.503Z,29.30
2023-02-11T09:42:26.765Z,34.50
2023-02-11T09:43:27.088Z,32.10
2023-02-11T09:44:27.365Z,30.00
2023-02-11T09:45:27.676Z,30.20
2023-02-11T09:46:28.017Z,31.00
2023-02-11T09:47:28.302Z,29.80
2023-02-11T09:48:28.563Z,30.00
2023-02-11T09:49:28.863Z,28.90
2023-02-11T09:50:29.150Z,29.40
2023-02-11T09:51:29.433Z,29.50
2023-02-11T09:52:29.690Z,30.70
2023-02-11T09:53:30.068Z,28.90
2023-02-11T09:54:30.296Z,29.70
2023-02-11T09:55:30.578Z,28.40
2023-02-11T09:56:30.831Z,31.60
2023-02-11T09:57:31.107Z,27.90
2023-02-11T09:58:31.430Z,31.70
2023-02-11T09:59:31.696Z,29.20
2023-02-11T10:00:31.943Z,30.30
2023-02-11T10:01:32.244Z,30.50
2023-02-11T10:02:32.506Z,30.00
2023-02-11T10:03:32.832Z,29.60
2023-02-11T10:04:33.553Z,31.10
2023-02-11T10:05:33.353Z,30.40
2023-02-11T10:06:33.584Z,34.30
2023-02-11T10:07:33.906Z,36.40
2023-02-11T10:08:34.170Z,31.50
2023-02-11T10:09:34.451Z,29.80
2023-02-11T10:10:34.708Z,34.90
2023-02-11T10:11:34.978Z,32.30
2023-02-11T10:12:35.260Z,28.90
2023-02-11T10:13:35.602Z,31.30
2023-02-11T10:14:35.872Z,30.50
2023-02-11T10:15:36.210Z,30.30
2023-02-11T10:16:36.419Z,30.50
2023-02-11T10:17:36.873Z,28.70
2023-02-11T10:18:37.026Z,29.40
2023-02-11T10:19:37.322Z,31.80
2023-02-11T10:20:37.535Z,29.50
2023-02-11T10:21:37.862Z,28.50
2023-02-11T10:22:38.142Z,31.30
2023-02-11T10:23:38.543Z,34.50
2023-02-11T10:24:38.751Z,31.10
2023-02-11T10:25:39.056Z,30.30
2023-02-11T10:26:39.391Z,29.10
2023-02-11T10:27:39.719Z,32.80
2023-02-11T10:28:39.939Z,31.90
2023-02-11T10:29:40.164Z,32.10
2023-02-11T10:30:40.474Z,33.50
2023-02-11T10:31:40.842Z,33.40
2023-02-11T10:32:41.010Z,32.40
2023-02-11T10:33:41.332Z,33.00
2023-02-11T10:34:41.550Z,32.30
2023-02-11T10:35:41.860Z,34.30
2023-02-11T10:36:42.118Z,29.80
2023-02-11T10:37:44.471Z,33.00
2023-02-11T10:38:42.832Z,30.30
2023-02-11T10:39:43.000Z,31.10
2023-02-11T10:40:43.342Z,30.90
2023-02-11T10:41:43.647Z,31.70
2023-02-11T10:42:43.915Z,29.70
2023-02-11T10:43:44.311Z,31.30
2023-02-11T10:44:44.496Z,30.80
2023-02-11T10:45:44.784Z,30.00
2023-02-11T10:46:45.071Z,29.40
2023-02-11T10:47:45.408Z,32.30
2023-02-11T10:48:45.624Z,29.20
2023-02-11T10:49:45.944Z,31.40
2023-02-11T10:50:46.215Z,32.00
2023-02-11T10:51:46.464Z,33.10
2023-02-11T10:52:46.775Z,37.80
2023-02-11T10:53:47.060Z,38.20
2023-02-11T10:54:47.354Z,30.50
2023-02-11T10:55:47.694Z,34.60
2023-02-11T10:56:47.923Z,39.30
2023-02-11T10:57:48.249Z,35.90
2023-02-11T10:58:48.494Z,33.60
2023-02-11T10:59:48.858Z,34.00
2023-02-11T11:00:49.553Z,39.30
2023-02-11T11:01:49.574Z,37.70
2023-02-11T11:02:49.731Z,34.50
2023-02-11T11:03:50.110Z,34.90
2023-02-11T11:04:50.494Z,32.30
2023-02-11T11:05:50.777Z,34.30
2023-02-11T11:06:51.096Z,37.00
2023-02-11T11:07:51.426Z,33.30
2023-02-11T11:08:51.690Z,36.60
2023-02-11T11:09:52.066Z,38.30
2023-02-11T11:10:52.601Z,36.50
2023-02-11T11:11:52.666Z,38.90
2023-02-11T11:12:52.920Z,36.20
2023-02-11T11:13:53.252Z,36.10
2023-02-11T11:14:53.480Z,39.20
2023-02-11T11:15:53.788Z,34.90
2023-02-11T11:16:54.104Z,41.70
2023-02-11T11:18:01.869Z,37.60
2023-02-11T11:18:55.684Z,38.30
2023-02-11T11:19:54.993Z,36.50
2023-02-11T11:20:55.285Z,37.20
2023-02-11T11:21:55.584Z,42.00
2023-02-11T11:22:55.881Z,39.10
2023-02-11T11:23:56.191Z,37.50
2023-02-11T11:24:56.551Z,37.90
2023-02-11T11:25:56.787Z,36.60
2023-02-11T11:26:57.092Z,36.20
2023-02-11T11:27:57.413Z,40.40
2023-02-11T11:28:57.655Z,37.30
2023-02-11T11:29:57.948Z,35.20
2023-02-11T11:30:58.310Z,41.40
2023-02-11T11:31:58.598Z,35.70
2023-02-11T11:32:58.782Z,38.40
2023-02-11T11:33:59.097Z,40.50
2023-02-11T11:34:59.358Z,39.50
2023-02-11T11:35:59.713Z,38.60
2023-02-11T11:37:00.174Z,38.90
2023-02-11T11:38:01.939Z,36.90
2023-02-11T11:39:00.568Z,36.40
2023-02-11T11:40:00.843Z,38.40
2023-02-11T11:41:01.148Z,40.30
2023-02-11T11:42:01.441Z,36.70
2023-02-11T11:43:01.742Z,39.10
2023-02-11T11:44:02.051Z,37.70
2023-02-11T11:45:02.318Z,40.10
2023-02-11T11:46:02.689Z,37.70
2023-02-11T11:47:02.933Z,39.00
2023-02-11T11:48:03.253Z,35.40
2023-02-11T11:49:03.511Z,39.40
2023-02-11T11:50:03.832Z,34.30
2023-02-11T11:51:04.110Z,36.00
2023-02-11T11:52:04.369Z,35.30
2023-02-11T11:53:04.662Z,41.60
2023-02-11T11:54:04.950Z,38.20
2023-02-11T11:55:05.202Z,36.80
2023-02-11T11:56:05.565Z,34.30
2023-02-11T11:57:05.828Z,34.20
2023-02-11T11:58:06.154Z,38.60
2023-02-11T11:59:06.435Z,37.50
2023-02-11T12:00:06.714Z,37.60
2023-02-11T12:01:07.068Z,35.90
2023-02-11T12:02:08.598Z,36.70
2023-02-11T12:03:07.707Z,34.80
2023-02-11T12:04:07.953Z,37.70
2023-02-11T12:05:08.222Z,36.00
2023-02-11T12:06:08.544Z,33.60
2023-02-11T12:07:08.762Z,37.10
2023-02-11T12:08:09.093Z,36.00
2023-02-11T12:09:09.352Z,34.20
2023-02-11T12:10:09.706Z,36.60
2023-02-11T12:11:10.024Z,36.10
2023-02-11T12:12:10.260Z,37.00
2023-02-11T12:13:10.553Z,35.20
2023-02-11T12:14:10.848Z,34.70
2023-02-11T12:15:11.132Z,37.10
2023-02-11T12:16:11.837Z,32.40
2023-02-11T12:17:11.715Z,33.90
2023-02-11T12:18:12.020Z,36.10
2023-02-11T12:19:12.317Z,33.40
2023-02-11T12:20:12.554Z,34.80
2023-02-11T12:21:12.866Z,34.30
2023-02-11T12:22:13.147Z,33.60
2023-02-11T12:23:13.559Z,32.90
2023-02-11T12:24:16.271Z,36.40
2023-02-11T12:25:13.956Z,37.10
2023-02-11T12:26:14.239Z,35.10
2023-02-11T12:27:14.561Z,40.30
2023-02-11T12:28:14.975Z,48.20
2023-02-11T12:29:15.078Z,41.40
2023-02-11T12:30:15.416Z,41.70
2023-02-11T12:31:15.740Z,40.90
2023-02-11T12:32:16.128Z,39.70
2023-02-11T12:33:16.235Z,36.50
2023-02-11T12:34:16.516Z,33.10
2023-02-11T12:35:16.854Z,38.00
2023-02-11T12:36:17.076Z,32.20
2023-02-11T12:37:17.386Z,32.40
2023-02-11T12:38:17.724Z,35.60
2023-02-11T12:39:17.963Z,36.40
2023-02-11T12:40:18.261Z,35.60
2023-02-11T12:41:18.638Z,37.30
2023-02-11T12:42:18.740Z,37.10
2023-02-11T12:43:19.065Z,34.50
2023-02-11T12:44:19.335Z,37.30
2023-02-11T12:45:19.587Z,34.60
2023-02-11T12:46:19.923Z,37.10
2023-02-11T12:47:20.229Z,36.20
2023-02-11T12:48:20.489Z,35.00
2023-02-11T12:49:20.821Z,41.70
2023-02-11T12:50:21.066Z,37.00
2023-02-11T12:51:21.295Z,35.60
2023-02-11T12:52:21.605Z,33.40
2023-02-11T12:53:21.876Z,30.40
2023-02-11T12:54:22.196Z,33.60
2023-02-11T12:55:22.409Z,31.90
2023-02-11T12:56:22.730Z,34.30